CAT7 weather

Lasqueti Island/False Bay Seaplane Base
British Columbia, Canada

Public forecast

Using degrees Celsius for public forecast. Weather courtesy of forecast.io.

METAR (pilot weather report)

Report is more than 2 hours old.

Closest report is Powell River Airport, 20.9 nm (38.7 km) NNW. Retrieved 2019/07/21 02:00 UTC (4 hours ago):

CYPW 210200Z 24003KT 210V300 25SM FEW220 BKN250 22/09 A3003 RMK CS2CI5 CONTRAILS LAST STFD OBS NEXT OBS 211300UTC SLP171 DENSITY ALT 1300FT

TAF (pilot weather forecast)

Forecast is more than 12 hours old.

Closest forecast is Comox Airport, 24.4 nm (45.2 km) WNW. Retrieved 2019/07/20 00:42 UTC (1 day ago):

TAF CYQQ 202339Z 2100/2124 VRB03KT P6SM FEW050 BKN250 FM211800 04005KT P6SM FEW120 SCT250 RMK NXT FCST BY 210600Z